sensor_id;sensor_type;location;lat;lon;timestamp;P1;durP1;ratioP1;P2;durP2;ratioP2
20888;SDS011;10604;51.976;7.594;2022-11-18T00:00:23;3.70;;;2.97;;
20888;SDS011;10604;51.976;7.594;2022-11-18T00:02:49;3.50;;;2.95;;
20888;SDS011;10604;51.976;7.594;2022-11-18T00:05:14;3.70;;;3.15;;
20888;SDS011;10604;51.976;7.594;2022-11-18T00:07:39;4.70;;;3.08;;
20888;SDS011;10604;51.976;7.594;2022-11-18T00:10:05;3.10;;;2.80;;
20888;SDS011;10604;51.976;7.594;2022-11-18T00:12:30;5.38;;;3.30;;
20888;SDS011;10604;51.976;7.594;2022-11-18T00:15:14;3.80;;;2.60;;
20888;SDS011;10604;51.976;7.594;2022-11-18T00:17:39;5.43;;;3.10;;
20888;SDS011;10604;51.976;7.594;2022-11-18T00:20:05;4.20;;;2.80;;
20888;SDS011;10604;51.976;7.594;2022-11-18T00:22:30;3.88;;;2.47;;
20888;SDS011;10604;51.976;7.594;2022-11-18T00:24:56;4.43;;;2.58;;
20888;SDS011;10604;51.976;7.594;2022-11-18T00:27:21;2.83;;;2.33;;
20888;SDS011;10604;51.976;7.594;2022-11-18T00:29:46;2.30;;;2.10;;
20888;SDS011;10604;51.976;7.594;2022-11-18T00:32:12;2.25;;;2.05;;
20888;SDS011;10604;51.976;7.594;2022-11-18T00:34:37;2.40;;;2.20;;
20888;SDS011;10604;51.976;7.594;2022-11-18T00:37:02;2.13;;;1.88;;
20888;SDS011;10604;51.976;7.594;2022-11-18T00:39:28;2.50;;;2.08;;
20888;SDS011;10604;51.976;7.594;2022-11-18T00:41:53;2.83;;;2.00;;
20888;SDS011;10604;51.976;7.594;2022-11-18T00:44:37;1.70;;;1.60;;
20888;SDS011;10604;51.976;7.594;2022-11-18T00:47:02;2.30;;;1.70;;
20888;SDS011;10604;51.976;7.594;2022-11-18T00:49:28;2.33;;;2.00;;
20888;SDS011;10604;51.976;7.594;2022-11-18T00:51:54;2.65;;;1.95;;
20888;SDS011;10604;51.976;7.594;2022-11-18T00:54:19;2.30;;;2.10;;
20888;SDS011;10604;51.976;7.594;2022-11-18T00:56:44;3.00;;;2.35;;
20888;SDS011;10604;51.976;7.594;2022-11-18T00:59:10;2.67;;;2.08;;
20888;SDS011;10604;51.976;7.594;2022-11-18T01:01:35;3.40;;;2.25;;
20888;SDS011;10604;51.976;7.594;2022-11-18T01:04:01;2.97;;;2.28;;
20888;SDS011;10604;51.976;7.594;2022-11-18T01:06:28;4.13;;;2.28;;
20888;SDS011;10604;51.976;7.594;2022-11-18T01:08:54;2.17;;;1.92;;
20888;SDS011;10604;51.976;7.594;2022-11-18T01:11:19;4.65;;;2.15;;
20888;SDS011;10604;51.976;7.594;2022-11-18T01:14:03;3.67;;;2.40;;
20888;SDS011;10604;51.976;7.594;2022-11-18T01:16:29;3.47;;;2.13;;
20888;SDS011;10604;51.976;7.594;2022-11-18T01:18:55;2.95;;;2.17;;
20888;SDS011;10604;51.976;7.594;2022-11-18T01:21:20;2.60;;;2.22;;
20888;SDS011;10604;51.976;7.594;2022-11-18T01:23:46;3.97;;;2.00;;
20888;SDS011;10604;51.976;7.594;2022-11-18T01:26:12;3.28;;;2.25;;
20888;SDS011;10604;51.976;7.594;2022-11-18T01:28:39;2.33;;;2.13;;
20888;SDS011;10604;51.976;7.594;2022-11-18T01:31:09;2.67;;;2.47;;
20888;SDS011;10604;51.976;7.594;2022-11-18T01:33:36;3.10;;;2.17;;
20888;SDS011;10604;51.976;7.594;2022-11-18T01:36:02;3.90;;;1.95;;
20888;SDS011;10604;51.976;7.594;2022-11-18T01:38:27;2.60;;;2.03;;
20888;SDS011;10604;51.976;7.594;2022-11-18T01:40:53;2.15;;;1.80;;
20888;SDS011;10604;51.976;7.594;2022-11-18T01:43:20;2.33;;;2.00;;
20888;SDS011;10604;51.976;7.594;2022-11-18T01:45:46;3.38;;;1.95;;
20888;SDS011;10604;51.976;7.594;2022-11-18T01:48:18;4.07;;;2.10;;
20888;SDS011;10604;51.976;7.594;2022-11-18T01:50:57;2.85;;;2.03;;
20888;SDS011;10604;51.976;7.594;2022-11-18T01:53:31;2.60;;;2.22;;
20888;SDS011;10604;51.976;7.594;2022-11-18T01:56:05;3.45;;;2.00;;
20888;SDS011;10604;51.976;7.594;2022-11-18T01:58:36;2.85;;;1.95;;
20888;SDS011;10604;51.976;7.594;2022-11-18T02:01:07;1.77;;;1.67;;
20888;SDS011;10604;51.976;7.594;2022-11-18T02:03:33;2.17;;;1.98;;
20888;SDS011;10604;51.976;7.594;2022-11-18T02:05:59;2.25;;;1.90;;
20888;SDS011;10604;51.976;7.594;2022-11-18T02:08:27;3.22;;;2.00;;
20888;SDS011;10604;51.976;7.594;2022-11-18T02:10:53;2.60;;;2.40;;
20888;SDS011;10604;51.976;7.594;2022-11-18T02:13:19;2.50;;;2.30;;
20888;SDS011;10604;51.976;7.594;2022-11-18T02:15:58;3.05;;;1.98;;
20888;SDS011;10604;51.976;7.594;2022-11-18T02:20:55;4.70;;;2.55;;
20888;SDS011;10604;51.976;7.594;2022-11-18T02:23:42;4.35;;;2.58;;
20888;SDS011;10604;51.976;7.594;2022-11-18T02:29:11;4.35;;;2.47;;
20888;SDS011;10604;51.976;7.594;2022-11-18T02:34:30;3.88;;;2.58;;
20888;SDS011;10604;51.976;7.594;2022-11-18T02:39:38;2.72;;;2.47;;
20888;SDS011;10604;51.976;7.594;2022-11-18T02:42:11;4.30;;;2.60;;
20888;SDS011;10604;51.976;7.594;2022-11-18T02:44:40;2.65;;;2.40;;
20888;SDS011;10604;51.976;7.594;2022-11-18T02:47:10;3.33;;;2.72;;
20888;SDS011;10604;51.976;7.594;2022-11-18T02:49:41;4.03;;;2.75;;
20888;SDS011;10604;51.976;7.594;2022-11-18T02:52:11;4.47;;;2.97;;
20888;SDS011;10604;51.976;7.594;2022-11-18T02:54:40;3.97;;;2.60;;
20888;SDS011;10604;51.976;7.594;2022-11-18T02:57:08;7.20;;;3.70;;
20888;SDS011;10604;51.976;7.594;2022-11-18T02:59:34;3.60;;;3.22;;
20888;SDS011;10604;51.976;7.594;2022-11-18T03:01:59;8.25;;;3.38;;
20888;SDS011;10604;51.976;7.594;2022-11-18T03:04:25;3.97;;;3.00;;
20888;SDS011;10604;51.976;7.594;2022-11-18T03:06:55;4.28;;;3.08;;
20888;SDS011;10604;51.976;7.594;2022-11-18T03:09:32;4.53;;;3.20;;
20888;SDS011;10604;51.976;7.594;2022-11-18T03:12:18;3.65;;;2.88;;
20888;SDS011;10604;51.976;7.594;2022-11-18T03:18:14;4.30;;;2.97;;
20888;SDS011;10604;51.976;7.594;2022-11-18T03:21:00;5.10;;;3.30;;
20888;SDS011;10604;51.976;7.594;2022-11-18T03:27:05;5.20;;;3.25;;
20888;SDS011;10604;51.976;7.594;2022-11-18T03:29:38;3.97;;;2.95;;
20888;SDS011;10604;51.976;7.594;2022-11-18T03:32:09;5.20;;;3.22;;
20888;SDS011;10604;51.976;7.594;2022-11-18T03:37:10;4.75;;;3.60;;
20888;SDS011;10604;51.976;7.594;2022-11-18T03:39:40;4.35;;;3.75;;
20888;SDS011;10604;51.976;7.594;2022-11-18T03:42:48;6.78;;;3.20;;
20888;SDS011;10604;51.976;7.594;2022-11-18T03:45:11;5.07;;;3.50;;
20888;SDS011;10604;51.976;7.594;2022-11-18T03:47:42;6.13;;;4.28;;
20888;SDS011;10604;51.976;7.594;2022-11-18T03:50:20;5.20;;;3.53;;
20888;SDS011;10604;51.976;7.594;2022-11-18T03:52:50;6.07;;;3.65;;
20888;SDS011;10604;51.976;7.594;2022-11-18T03:55:38;4.70;;;3.15;;
20888;SDS011;10604;51.976;7.594;2022-11-18T03:58:23;6.00;;;3.67;;
20888;SDS011;10604;51.976;7.594;2022-11-18T04:00:55;4.18;;;2.97;;
20888;SDS011;10604;51.976;7.594;2022-11-18T04:03:25;9.95;;;4.00;;
20888;SDS011;10604;51.976;7.594;2022-11-18T04:05:52;5.05;;;3.80;;
20888;SDS011;10604;51.976;7.594;2022-11-18T04:08:27;5.45;;;3.78;;
20888;SDS011;10604;51.976;7.594;2022-11-18T04:10:58;6.47;;;4.15;;
20888;SDS011;10604;51.976;7.594;2022-11-18T04:13:29;4.65;;;3.70;;
20888;SDS011;10604;51.976;7.594;2022-11-18T04:15:57;5.68;;;3.60;;
20888;SDS011;10604;51.976;7.594;2022-11-18T04:18:22;4.35;;;3.92;;
20888;SDS011;10604;51.976;7.594;2022-11-18T04:20:48;5.60;;;3.95;;
20888;SDS011;10604;51.976;7.594;2022-11-18T04:23:13;6.50;;;4.15;;
20888;SDS011;10604;51.976;7.594;2022-11-18T04:25:39;12.43;;;4.05;;
20888;SDS011;10604;51.976;7.594;2022-11-18T04:28:04;7.13;;;4.50;;
20888;SDS011;10604;51.976;7.594;2022-11-18T04:30:30;4.70;;;4.05;;
20888;SDS011;10604;51.976;7.594;2022-11-18T04:32:56;4.45;;;3.90;;
20888;SDS011;10604;51.976;7.594;2022-11-18T04:35:22;6.65;;;4.00;;
20888;SDS011;10604;51.976;7.594;2022-11-18T04:37:48;5.45;;;4.38;;
20888;SDS011;10604;51.976;7.594;2022-11-18T04:40:13;8.52;;;4.88;;
20888;SDS011;10604;51.976;7.594;2022-11-18T04:42:38;6.78;;;5.22;;
20888;SDS011;10604;51.976;7.594;2022-11-18T04:45:04;7.97;;;5.22;;
20888;SDS011;10604;51.976;7.594;2022-11-18T04:47:30;6.38;;;5.13;;
20888;SDS011;10604;51.976;7.594;2022-11-18T04:49:56;5.65;;;5.15;;
20888;SDS011;10604;51.976;7.594;2022-11-18T04:52:21;10.30;;;5.53;;
20888;SDS011;10604;51.976;7.594;2022-11-18T04:54:47;7.65;;;5.80;;
20888;SDS011;10604;51.976;7.594;2022-11-18T04:57:12;6.63;;;5.93;;
20888;SDS011;10604;51.976;7.594;2022-11-18T04:59:38;8.23;;;5.88;;
20888;SDS011;10604;51.976;7.594;2022-11-18T05:02:03;7.18;;;5.68;;
20888;SDS011;10604;51.976;7.594;2022-11-18T05:04:31;7.63;;;5.68;;
20888;SDS011;10604;51.976;7.594;2022-11-18T05:06:58;8.20;;;5.93;;
20888;SDS011;10604;51.976;7.594;2022-11-18T05:09:25;6.95;;;5.38;;
20888;SDS011;10604;51.976;7.594;2022-11-18T05:11:50;6.60;;;5.28;;
20888;SDS011;10604;51.976;7.594;2022-11-18T05:14:35;8.35;;;6.53;;
20888;SDS011;10604;51.976;7.594;2022-11-18T05:17:02;10.63;;;6.43;;
20888;SDS011;10604;51.976;7.594;2022-11-18T05:19:29;10.85;;;7.22;;
20888;SDS011;10604;51.976;7.594;2022-11-18T05:21:55;9.82;;;7.97;;
20888;SDS011;10604;51.976;7.594;2022-11-18T05:24:21;14.52;;;10.02;;
20888;SDS011;10604;51.976;7.594;2022-11-18T05:26:48;10.48;;;8.10;;
20888;SDS011;10604;51.976;7.594;2022-11-18T05:29:15;12.88;;;8.88;;
20888;SDS011;10604;51.976;7.594;2022-11-18T05:31:42;10.95;;;9.20;;
20888;SDS011;10604;51.976;7.594;2022-11-18T05:34:07;10.70;;;8.60;;
20888;SDS011;10604;51.976;7.594;2022-11-18T05:36:32;9.27;;;8.35;;
20888;SDS011;10604;51.976;7.594;2022-11-18T05:38:58;8.52;;;7.32;;
20888;SDS011;10604;51.976;7.594;2022-11-18T05:41:23;8.68;;;7.85;;
20888;SDS011;10604;51.976;7.594;2022-11-18T05:44:07;8.80;;;7.32;;
20888;SDS011;10604;51.976;7.594;2022-11-18T05:46:32;8.18;;;7.38;;
20888;SDS011;10604;51.976;7.594;2022-11-18T05:48:58;10.13;;;7.40;;
20888;SDS011;10604;51.976;7.594;2022-11-18T05:51:23;9.68;;;7.63;;
20888;SDS011;10604;51.976;7.594;2022-11-18T05:53:49;12.52;;;7.53;;
20888;SDS011;10604;51.976;7.594;2022-11-18T05:56:28;11.25;;;7.32;;
20888;SDS011;10604;51.976;7.594;2022-11-18T05:58:57;9.45;;;7.22;;
20888;SDS011;10604;51.976;7.594;2022-11-18T06:01:30;7.63;;;6.75;;
20888;SDS011;10604;51.976;7.594;2022-11-18T06:03:57;8.32;;;7.25;;
20888;SDS011;10604;51.976;7.594;2022-11-18T06:06:24;9.30;;;6.97;;
20888;SDS011;10604;51.976;7.594;2022-11-18T06:09:00;7.75;;;6.90;;
20888;SDS011;10604;51.976;7.594;2022-11-18T06:11:28;8.23;;;7.43;;
20888;SDS011;10604;51.976;7.594;2022-11-18T06:13:59;9.18;;;7.25;;
20888;SDS011;10604;51.976;7.594;2022-11-18T06:16:30;8.95;;;7.45;;
20888;SDS011;10604;51.976;7.594;2022-11-18T06:18:58;8.93;;;8.02;;
20888;SDS011;10604;51.976;7.594;2022-11-18T06:21:26;10.38;;;8.13;;
20888;SDS011;10604;51.976;7.594;2022-11-18T06:23:52;9.40;;;6.82;;
20888;SDS011;10604;51.976;7.594;2022-11-18T06:26:17;7.72;;;6.50;;
20888;SDS011;10604;51.976;7.594;2022-11-18T06:28:43;7.32;;;6.60;;
20888;SDS011;10604;51.976;7.594;2022-11-18T06:31:12;9.13;;;6.97;;
20888;SDS011;10604;51.976;7.594;2022-11-18T06:33:37;7.72;;;7.00;;
20888;SDS011;10604;51.976;7.594;2022-11-18T06:36:03;9.68;;;7.35;;
20888;SDS011;10604;51.976;7.594;2022-11-18T06:38:28;8.25;;;7.43;;
20888;SDS011;10604;51.976;7.594;2022-11-18T06:40:58;10.90;;;8.00;;
20888;SDS011;10604;51.976;7.594;2022-11-18T06:43:26;11.45;;;8.82;;
20888;SDS011;10604;51.976;7.594;2022-11-18T06:46:06;14.23;;;10.77;;
20888;SDS011;10604;51.976;7.594;2022-11-18T06:48:52;22.20;;;14.18;;
20888;SDS011;10604;51.976;7.594;2022-11-18T06:51:17;14.48;;;11.52;;
20888;SDS011;10604;51.976;7.594;2022-11-18T06:53:43;10.98;;;9.15;;
20888;SDS011;10604;51.976;7.594;2022-11-18T06:56:09;11.82;;;9.25;;
20888;SDS011;10604;51.976;7.594;2022-11-18T06:58:36;13.07;;;8.77;;
20888;SDS011;10604;51.976;7.594;2022-11-18T07:01:21;12.52;;;9.23;;
20888;SDS011;10604;51.976;7.594;2022-11-18T07:03:51;12.55;;;8.73;;
20888;SDS011;10604;51.976;7.594;2022-11-18T07:06:21;13.98;;;8.95;;
20888;SDS011;10604;51.976;7.594;2022-11-18T07:08:48;12.60;;;8.85;;
20888;SDS011;10604;51.976;7.594;2022-11-18T07:11:16;12.15;;;9.05;;
20888;SDS011;10604;51.976;7.594;2022-11-18T07:13:43;13.23;;;8.75;;
20888;SDS011;10604;51.976;7.594;2022-11-18T07:16:10;11.00;;;8.73;;
20888;SDS011;10604;51.976;7.594;2022-11-18T07:18:37;12.73;;;9.52;;
20888;SDS011;10604;51.976;7.594;2022-11-18T07:21:05;10.60;;;8.80;;
20888;SDS011;10604;51.976;7.594;2022-11-18T07:23:33;10.45;;;8.82;;
20888;SDS011;10604;51.976;7.594;2022-11-18T07:25:58;12.98;;;8.70;;
20888;SDS011;10604;51.976;7.594;2022-11-18T07:28:25;10.73;;;9.20;;
20888;SDS011;10604;51.976;7.594;2022-11-18T07:30:51;10.65;;;9.05;;
20888;SDS011;10604;51.976;7.594;2022-11-18T07:33:17;10.00;;;8.45;;
20888;SDS011;10604;51.976;7.594;2022-11-18T07:35:42;11.25;;;8.65;;
20888;SDS011;10604;51.976;7.594;2022-11-18T07:38:08;16.25;;;9.55;;
20888;SDS011;10604;51.976;7.594;2022-11-18T07:40:33;15.07;;;9.07;;
20888;SDS011;10604;51.976;7.594;2022-11-18T07:42:58;13.10;;;9.30;;
20888;SDS011;10604;51.976;7.594;2022-11-18T07:45:24;11.75;;;9.25;;
20888;SDS011;10604;51.976;7.594;2022-11-18T07:47:49;11.00;;;8.77;;
20888;SDS011;10604;51.976;7.594;2022-11-18T07:50:15;12.80;;;9.45;;
20888;SDS011;10604;51.976;7.594;2022-11-18T07:52:41;13.13;;;9.95;;
20888;SDS011;10604;51.976;7.594;2022-11-18T07:55:07;13.55;;;9.80;;
20888;SDS011;10604;51.976;7.594;2022-11-18T07:57:32;11.70;;;9.68;;
20888;SDS011;10604;51.976;7.594;2022-11-18T07:59:58;11.32;;;8.77;;
20888;SDS011;10604;51.976;7.594;2022-11-18T08:02:23;10.18;;;8.70;;
20888;SDS011;10604;51.976;7.594;2022-11-18T08:04:48;10.32;;;8.70;;
20888;SDS011;10604;51.976;7.594;2022-11-18T08:07:14;16.25;;;9.55;;
20888;SDS011;10604;51.976;7.594;2022-11-18T08:09:39;12.13;;;9.20;;
20888;SDS011;10604;51.976;7.594;2022-11-18T08:12:05;14.82;;;9.90;;
20888;SDS011;10604;51.976;7.594;2022-11-18T08:14:30;12.30;;;10.18;;
20888;SDS011;10604;51.976;7.594;2022-11-18T08:16:56;12.73;;;9.75;;
20888;SDS011;10604;51.976;7.594;2022-11-18T08:19:21;9.77;;;8.52;;
20888;SDS011;10604;51.976;7.594;2022-11-18T08:21:46;11.63;;;9.75;;
20888;SDS011;10604;51.976;7.594;2022-11-18T08:24:12;13.35;;;10.93;;
20888;SDS011;10604;51.976;7.594;2022-11-18T08:26:37;15.10;;;11.70;;
20888;SDS011;10604;51.976;7.594;2022-11-18T08:29:02;21.88;;;14.68;;
20888;SDS011;10604;51.976;7.594;2022-11-18T08:31:28;26.52;;;16.90;;
20888;SDS011;10604;51.976;7.594;2022-11-18T08:33:55;25.98;;;17.63;;
20888;SDS011;10604;51.976;7.594;2022-11-18T08:36:29;24.95;;;16.17;;
20888;SDS011;10604;51.976;7.594;2022-11-18T08:38:56;22.73;;;15.23;;
20888;SDS011;10604;51.976;7.594;2022-11-18T08:41:26;24.90;;;15.80;;
20888;SDS011;10604;51.976;7.594;2022-11-18T08:43:55;24.65;;;17.50;;
20888;SDS011;10604;51.976;7.594;2022-11-18T08:46:20;16.13;;;12.45;;
20888;SDS011;10604;51.976;7.594;2022-11-18T08:48:47;16.88;;;11.13;;
20888;SDS011;10604;51.976;7.594;2022-11-18T08:51:12;14.32;;;10.15;;
20888;SDS011;10604;51.976;7.594;2022-11-18T08:53:38;11.65;;;9.73;;
20888;SDS011;10604;51.976;7.594;2022-11-18T08:56:03;13.07;;;10.65;;
20888;SDS011;10604;51.976;7.594;2022-11-18T08:58:29;13.95;;;9.88;;
20888;SDS011;10604;51.976;7.594;2022-11-18T09:00:55;14.30;;;10.45;;
20888;SDS011;10604;51.976;7.594;2022-11-18T09:03:20;13.88;;;10.88;;
20888;SDS011;10604;51.976;7.594;2022-11-18T09:05:46;14.57;;;11.35;;
20888;SDS011;10604;51.976;7.594;2022-11-18T09:08:11;20.35;;;11.15;;
20888;SDS011;10604;51.976;7.594;2022-11-18T09:10:37;17.17;;;12.10;;
20888;SDS011;10604;51.976;7.594;2022-11-18T09:13:02;15.40;;;10.80;;
20888;SDS011;10604;51.976;7.594;2022-11-18T09:15:28;13.98;;;11.07;;
20888;SDS011;10604;51.976;7.594;2022-11-18T09:17:54;13.48;;;11.25;;
20888;SDS011;10604;51.976;7.594;2022-11-18T09:20:20;14.98;;;10.88;;
20888;SDS011;10604;51.976;7.594;2022-11-18T09:22:46;14.90;;;11.60;;
20888;SDS011;10604;51.976;7.594;2022-11-18T09:25:11;14.00;;;11.30;;
20888;SDS011;10604;51.976;7.594;2022-11-18T09:27:37;16.90;;;11.68;;
20888;SDS011;10604;51.976;7.594;2022-11-18T09:30:03;15.77;;;11.27;;
20888;SDS011;10604;51.976;7.594;2022-11-18T09:32:28;13.85;;;11.82;;
20888;SDS011;10604;51.976;7.594;2022-11-18T09:34:54;15.43;;;11.80;;
20888;SDS011;10604;51.976;7.594;2022-11-18T09:37:19;16.38;;;11.27;;
20888;SDS011;10604;51.976;7.594;2022-11-18T09:39:44;14.32;;;11.02;;
20888;SDS011;10604;51.976;7.594;2022-11-18T09:47:31;13.73;;;10.18;;
20888;SDS011;10604;51.976;7.594;2022-11-18T09:52:43;14.38;;;11.13;;
20888;SDS011;10604;51.976;7.594;2022-11-18T09:55:17;16.92;;;12.48;;
20888;SDS011;10604;51.976;7.594;2022-11-18T09:57:44;16.90;;;11.85;;
20888;SDS011;10604;51.976;7.594;2022-11-18T10:02:49;14.15;;;10.65;;
20888;SDS011;10604;51.976;7.594;2022-11-18T10:05:31;13.23;;;10.40;;
20888;SDS011;10604;51.976;7.594;2022-11-18T10:08:20;13.98;;;11.07;;
20888;SDS011;10604;51.976;7.594;2022-11-18T10:22:13;13.20;;;10.75;;
20888;SDS011;10604;51.976;7.594;2022-11-18T10:24:43;14.30;;;11.25;;
20888;SDS011;10604;51.976;7.594;2022-11-18T10:27:13;12.50;;;10.55;;
20888;SDS011;10604;51.976;7.594;2022-11-18T10:29:40;12.15;;;10.35;;
20888;SDS011;10604;51.976;7.594;2022-11-18T10:32:10;14.45;;;10.73;;
20888;SDS011;10604;51.976;7.594;2022-11-18T10:39:55;13.80;;;10.68;;
20888;SDS011;10604;51.976;7.594;2022-11-18T10:42:29;12.38;;;10.25;;
20888;SDS011;10604;51.976;7.594;2022-11-18T10:48:07;15.35;;;11.52;;
20888;SDS011;10604;51.976;7.594;2022-11-18T10:50:44;13.77;;;11.07;;
20888;SDS011;10604;51.976;7.594;2022-11-18T10:55:55;15.18;;;10.82;;
20888;SDS011;10604;51.976;7.594;2022-11-18T10:58:33;14.98;;;11.18;;
20888;SDS011;10604;51.976;7.594;2022-11-18T11:01:04;14.35;;;11.32;;
20888;SDS011;10604;51.976;7.594;2022-11-18T11:03:37;14.55;;;10.90;;
20888;SDS011;10604;51.976;7.594;2022-11-18T11:14:41;29.25;;;11.48;;
20888;SDS011;10604;51.976;7.594;2022-11-18T11:17:11;15.25;;;10.93;;
20888;SDS011;10604;51.976;7.594;2022-11-18T11:20:21;15.18;;;10.80;;
20888;SDS011;10604;51.976;7.594;2022-11-18T11:22:34;13.93;;;11.20;;
20888;SDS011;10604;51.976;7.594;2022-11-18T11:24:59;16.73;;;11.30;;
20888;SDS011;10604;51.976;7.594;2022-11-18T11:30:27;16.80;;;12.15;;
20888;SDS011;10604;51.976;7.594;2022-11-18T11:38:30;17.52;;;12.48;;
20888;SDS011;10604;51.976;7.594;2022-11-18T11:49:54;16.17;;;12.73;;
20888;SDS011;10604;51.976;7.594;2022-11-18T11:52:45;16.65;;;12.00;;
20888;SDS011;10604;51.976;7.594;2022-11-18T11:55:28;17.95;;;12.68;;
20888;SDS011;10604;51.976;7.594;2022-11-18T12:00:45;15.05;;;11.90;;
20888;SDS011;10604;51.976;7.594;2022-11-18T12:06:03;19.33;;;12.82;;
20888;SDS011;10604;51.976;7.594;2022-11-18T12:08:29;16.25;;;11.68;;
20888;SDS011;10604;51.976;7.594;2022-11-18T12:11:02;14.48;;;10.93;;
20888;SDS011;10604;51.976;7.594;2022-11-18T12:21:55;11.90;;;10.50;;
20888;SDS011;10604;51.976;7.594;2022-11-18T12:26:42;12.63;;;9.65;;
20888;SDS011;10604;51.976;7.594;2022-11-18T12:31:43;13.02;;;10.30;;
20888;SDS011;10604;51.976;7.594;2022-11-18T12:36:56;23.35;;;17.98;;
20888;SDS011;10604;51.976;7.594;2022-11-18T12:39:47;11.90;;;9.30;;
20888;SDS011;10604;51.976;7.594;2022-11-18T12:50:49;8.88;;;7.57;;
20888;SDS011;10604;51.976;7.594;2022-11-18T12:53:30;9.63;;;7.57;;
20888;SDS011;10604;51.976;7.594;2022-11-18T12:55:59;9.38;;;7.15;;
20888;SDS011;10604;51.976;7.594;2022-11-18T12:58:25;8.73;;;7.03;;
20888;SDS011;10604;51.976;7.594;2022-11-18T13:01:02;8.63;;;6.80;;
20888;SDS011;10604;51.976;7.594;2022-11-18T13:03:32;7.85;;;6.72;;
20888;SDS011;10604;51.976;7.594;2022-11-18T13:05:59;8.98;;;6.35;;
20888;SDS011;10604;51.976;7.594;2022-11-18T13:08:27;8.70;;;6.68;;
20888;SDS011;10604;51.976;7.594;2022-11-18T13:10:54;8.05;;;6.78;;
20888;SDS011;10604;51.976;7.594;2022-11-18T13:13:41;10.10;;;6.97;;
20888;SDS011;10604;51.976;7.594;2022-11-18T13:16:22;8.32;;;7.03;;
20888;SDS011;10604;51.976;7.594;2022-11-18T13:19:07;8.88;;;7.32;;
20888;SDS011;10604;51.976;7.594;2022-11-18T13:21:33;9.23;;;7.10;;
20888;SDS011;10604;51.976;7.594;2022-11-18T13:24:18;7.63;;;6.78;;
20888;SDS011;10604;51.976;7.594;2022-11-18T13:26:45;10.68;;;7.63;;
20888;SDS011;10604;51.976;7.594;2022-11-18T13:32:22;10.70;;;7.43;;
20888;SDS011;10604;51.976;7.594;2022-11-18T13:34:50;9.25;;;6.43;;
20888;SDS011;10604;51.976;7.594;2022-11-18T13:37:18;8.65;;;7.00;;
20888;SDS011;10604;51.976;7.594;2022-11-18T13:39:46;9.07;;;7.25;;
20888;SDS011;10604;51.976;7.594;2022-11-18T13:44:55;7.82;;;6.68;;
20888;SDS011;10604;51.976;7.594;2022-11-18T13:47:39;10.02;;;7.50;;
20888;SDS011;10604;51.976;7.594;2022-11-18T13:50:13;13.68;;;7.60;;
20888;SDS011;10604;51.976;7.594;2022-11-18T13:52:48;9.18;;;7.00;;
20888;SDS011;10604;51.976;7.594;2022-11-18T13:55:22;10.00;;;6.93;;
20888;SDS011;10604;51.976;7.594;2022-11-18T13:57:51;8.02;;;6.85;;
20888;SDS011;10604;51.976;7.594;2022-11-18T14:00:25;9.43;;;6.50;;
20888;SDS011;10604;51.976;7.594;2022-11-18T14:02:53;7.85;;;6.20;;
20888;SDS011;10604;51.976;7.594;2022-11-18T14:05:21;7.82;;;6.85;;
20888;SDS011;10604;51.976;7.594;2022-11-18T14:08:17;8.75;;;7.13;;
20888;SDS011;10604;51.976;7.594;2022-11-18T14:10:49;9.15;;;6.97;;
20888;SDS011;10604;51.976;7.594;2022-11-18T14:13:22;8.18;;;6.88;;
20888;SDS011;10604;51.976;7.594;2022-11-18T14:15:51;8.32;;;6.68;;
20888;SDS011;10604;51.976;7.594;2022-11-18T14:18:19;8.65;;;7.35;;
20888;SDS011;10604;51.976;7.594;2022-11-18T14:20:50;8.68;;;7.28;;
20888;SDS011;10604;51.976;7.594;2022-11-18T14:23:17;9.60;;;7.70;;
20888;SDS011;10604;51.976;7.594;2022-11-18T14:25:50;9.75;;;7.75;;
20888;SDS011;10604;51.976;7.594;2022-11-18T14:30:41;10.73;;;7.63;;
20888;SDS011;10604;51.976;7.594;2022-11-18T14:35:53;8.70;;;7.68;;
20888;SDS011;10604;51.976;7.594;2022-11-18T14:38:47;8.10;;;6.95;;
20888;SDS011;10604;51.976;7.594;2022-11-18T14:41:18;9.30;;;7.43;;
20888;SDS011;10604;51.976;7.594;2022-11-18T14:44:03;10.00;;;8.18;;
20888;SDS011;10604;51.976;7.594;2022-11-18T14:46:29;10.02;;;7.35;;
20888;SDS011;10604;51.976;7.594;2022-11-18T14:48:55;7.85;;;6.55;;
20888;SDS011;10604;51.976;7.594;2022-11-18T14:51:21;9.93;;;6.90;;
20888;SDS011;10604;51.976;7.594;2022-11-18T14:53:47;8.85;;;7.10;;
20888;SDS011;10604;51.976;7.594;2022-11-18T14:56:21;8.95;;;7.13;;
20888;SDS011;10604;51.976;7.594;2022-11-18T14:58:50;7.07;;;6.07;;
20888;SDS011;10604;51.976;7.594;2022-11-18T15:01:16;8.48;;;6.55;;
20888;SDS011;10604;51.976;7.594;2022-11-18T15:03:41;7.85;;;6.72;;
20888;SDS011;10604;51.976;7.594;2022-11-18T15:06:13;9.98;;;6.70;;
20888;SDS011;10604;51.976;7.594;2022-11-18T15:08:40;7.55;;;6.50;;
20888;SDS011;10604;51.976;7.594;2022-11-18T15:11:07;9.63;;;6.93;;
20888;SDS011;10604;51.976;7.594;2022-11-18T15:13:33;10.35;;;6.72;;
20888;SDS011;10604;51.976;7.594;2022-11-18T15:15:58;8.23;;;7.13;;
20888;SDS011;10604;51.976;7.594;2022-11-18T15:18:23;10.38;;;7.15;;
20888;SDS011;10604;51.976;7.594;2022-11-18T15:20:49;10.45;;;7.15;;
20888;SDS011;10604;51.976;7.594;2022-11-18T15:23:15;10.60;;;7.00;;
20888;SDS011;10604;51.976;7.594;2022-11-18T15:25:41;10.35;;;6.72;;
20888;SDS011;10604;51.976;7.594;2022-11-18T15:28:08;9.32;;;7.28;;
20888;SDS011;10604;51.976;7.594;2022-11-18T15:30:34;9.43;;;7.72;;
20888;SDS011;10604;51.976;7.594;2022-11-18T15:32:59;10.85;;;7.38;;
20888;SDS011;10604;51.976;7.594;2022-11-18T15:35:25;10.80;;;7.75;;
20888;SDS011;10604;51.976;7.594;2022-11-18T15:37:50;8.82;;;7.38;;
20888;SDS011;10604;51.976;7.594;2022-11-18T15:40:16;9.50;;;7.68;;
20888;SDS011;10604;51.976;7.594;2022-11-18T15:42:41;13.52;;;7.65;;
20888;SDS011;10604;51.976;7.594;2022-11-18T15:45:06;9.88;;;7.43;;
20888;SDS011;10604;51.976;7.594;2022-11-18T15:47:32;9.02;;;7.55;;
20888;SDS011;10604;51.976;7.594;2022-11-18T15:50:01;11.80;;;7.40;;
20888;SDS011;10604;51.976;7.594;2022-11-18T15:52:27;8.77;;;7.50;;
20888;SDS011;10604;51.976;7.594;2022-11-18T15:54:52;10.05;;;7.28;;
20888;SDS011;10604;51.976;7.594;2022-11-18T15:57:18;11.82;;;7.68;;
20888;SDS011;10604;51.976;7.594;2022-11-18T15:59:44;10.02;;;7.10;;
20888;SDS011;10604;51.976;7.594;2022-11-18T16:02:09;10.80;;;7.97;;
20888;SDS011;10604;51.976;7.594;2022-11-18T16:04:35;11.10;;;8.20;;
20888;SDS011;10604;51.976;7.594;2022-11-18T16:07:01;11.40;;;7.43;;
20888;SDS011;10604;51.976;7.594;2022-11-18T16:09:27;9.93;;;7.40;;
20888;SDS011;10604;51.976;7.594;2022-11-18T16:12:12;12.63;;;9.18;;
20888;SDS011;10604;51.976;7.594;2022-11-18T16:14:56;11.35;;;8.05;;
20888;SDS011;10604;51.976;7.594;2022-11-18T16:17:41;11.45;;;8.18;;
20888;SDS011;10604;51.976;7.594;2022-11-18T16:20:07;11.55;;;8.75;;
20888;SDS011;10604;51.976;7.594;2022-11-18T16:22:32;10.40;;;7.03;;
20888;SDS011;10604;51.976;7.594;2022-11-18T16:24:58;10.85;;;8.43;;
20888;SDS011;10604;51.976;7.594;2022-11-18T16:27:23;12.15;;;8.52;;
20888;SDS011;10604;51.976;7.594;2022-11-18T16:29:48;11.88;;;8.25;;
20888;SDS011;10604;51.976;7.594;2022-11-18T16:32:14;10.82;;;7.15;;
20888;SDS011;10604;51.976;7.594;2022-11-18T16:34:39;10.35;;;7.88;;
20888;SDS011;10604;51.976;7.594;2022-11-18T16:37:04;9.52;;;7.88;;
20888;SDS011;10604;51.976;7.594;2022-11-18T16:39:30;12.40;;;8.82;;
20888;SDS011;10604;51.976;7.594;2022-11-18T16:41:56;11.15;;;8.23;;
20888;SDS011;10604;51.976;7.594;2022-11-18T16:44:23;14.32;;;9.38;;
20888;SDS011;10604;51.976;7.594;2022-11-18T16:46:49;10.27;;;8.13;;
20888;SDS011;10604;51.976;7.594;2022-11-18T16:49:17;11.75;;;8.73;;